Time;durP1;ratioP1;P1;durP2;ratioP2;P2;SDS_P1;SDS_P2;PMS_P1;PMS_P2;Temp;Humidity;BMP_temperature;BMP_pressure;BME280_temperature;BME280_humidity;BME280_pressure;Samples;Min_cycle;Max_cycle;Signal;HPM_P1;HPM_P2
2024/04/05 00:00:48;;;;;;;11.25;6.60;;;;;;;;;;5011173;28;20056;-57
2024/04/05 00:03:14;;;;;;;11.60;6.80;;;;;;;;;;5011318;28;20030;-56
2024/04/05 00:05:41;;;;;;;10.90;6.40;;;;;;;;;;5011340;28;20538;-56
2024/04/05 00:08:07;;;;;;;10.90;6.40;;;;;;;;;;5011497;28;20018;-53
2024/04/05 00:10:33;;;;;;;11.70;6.85;;;;;;;;;;5011295;28;20100;-53
2024/04/05 00:12:59;;;;;;;12.07;7.03;;;;;;;;;;5010702;28;20492;-54
2024/04/05 00:15:25;;;;;;;11.15;6.53;;;;;;;;;;4664307;28;10000318;-54
2024/04/05 00:17:51;;;;;;;10.98;6.47;;;;;;;;;;5011429;28;20068;-56
2024/04/05 00:20:17;;;;;;;10.85;6.32;;;;;;;;;;5010571;28;20025;-55
2024/04/05 00:22:43;;;;;;;11.23;6.60;;;;;;;;;;5011062;28;20057;-55
2024/04/05 00:25:09;;;;;;;11.20;6.60;;;;;;;;;;5010249;28;20049;-52
2024/04/05 00:27:35;;;;;;;10.88;6.40;;;;;;;;;;5011336;28;20049;-54
2024/04/05 00:30:01;;;;;;;11.40;6.65;;;;;;;;;;5011409;28;20022;-53
2024/04/05 00:32:27;;;;;;;10.73;6.30;;;;;;;;;;5009722;28;20056;-53
2024/04/05 00:34:53;;;;;;;11.13;6.50;;;;;;;;;;5011023;28;20029;-55
2024/04/05 00:37:19;;;;;;;10.65;6.30;;;;;;;;;;5011558;28;20034;-55
2024/04/05 00:39:45;;;;;;;10.55;6.20;;;;;;;;;;5011216;28;20032;-55
2024/04/05 00:42:11;;;;;;;11.38;6.70;;;;;;;;;;5011089;28;20033;-56
2024/04/05 00:44:37;;;;;;;11.00;6.50;;;;;;;;;;5011300;28;20445;-55
2024/04/05 00:47:03;;;;;;;13.27;6.70;;;;;;;;;;5010677;28;20018;-52
2024/04/05 00:49:29;;;;;;;11.38;6.68;;;;;;;;;;5011210;28;20038;-53
2024/04/05 00:51:57;;;;;;;10.82;6.38;;;;;;;;;;5011045;28;20112;-56
2024/04/05 00:54:23;;;;;;;11.05;6.47;;;;;;;;;;5009631;28;20030;-55
2024/04/05 00:56:49;;;;;;;11.02;6.50;;;;;;;;;;5009927;28;20030;-56
2024/04/05 00:59:15;;;;;;;10.63;6.30;;;;;;;;;;5010946;28;20125;-55
2024/04/05 01:01:42;;;;;;;10.77;6.30;;;;;;;;;;5010838;28;20105;-55
2024/04/05 01:04:08;;;;;;;10.38;6.10;;;;;;;;;;5010752;28;20263;-56
2024/04/05 01:06:34;;;;;;;10.80;6.40;;;;;;;;;;5010950;28;20029;-53
2024/04/05 01:09:00;;;;;;;10.27;6.05;;;;;;;;;;5010926;28;20092;-56
2024/04/05 01:11:26;;;;;;;10.38;6.10;;;;;;;;;;5010892;28;20040;-57
2024/04/05 01:13:52;;;;;;;10.30;6.10;;;;;;;;;;5011098;28;20030;-55
2024/04/05 01:16:18;;;;;;;10.90;6.40;;;;;;;;;;5009831;28;20022;-55
2024/04/05 01:18:44;;;;;;;11.10;6.50;;;;;;;;;;5010779;28;20029;-57
2024/04/05 01:21:11;;;;;;;11.30;6.43;;;;;;;;;;5010944;28;20084;-53
2024/04/05 01:23:40;;;;;;;10.80;6.30;;;;;;;;;;5010616;28;20130;-56
2024/04/05 01:26:06;;;;;;;10.40;6.13;;;;;;;;;;5010552;28;20022;-53
2024/04/05 01:28:32;;;;;;;10.80;6.35;;;;;;;;;;5010647;28;20050;-53
2024/04/05 01:30:58;;;;;;;11.45;6.68;;;;;;;;;;5008552;28;20033;-55
2024/04/05 01:33:24;;;;;;;11.40;6.70;;;;;;;;;;5010611;28;20392;-56
2024/04/05 01:35:50;;;;;;;11.10;6.50;;;;;;;;;;5010500;28;20025;-57
2024/04/05 01:38:16;;;;;;;11.00;6.45;;;;;;;;;;5010852;28;20025;-54
2024/04/05 01:40:42;;;;;;;11.32;6.65;;;;;;;;;;5009467;28;20172;-56
2024/04/05 01:43:08;;;;;;;11.70;6.80;;;;;;;;;;5010889;28;20529;-56
2024/04/05 01:45:34;;;;;;;11.60;6.80;;;;;;;;;;5009048;28;20072;-56
2024/04/05 01:48:00;;;;;;;11.63;6.80;;;;;;;;;;5010537;28;20030;-57
2024/04/05 01:50:26;;;;;;;11.60;6.80;;;;;;;;;;5010111;28;20025;-56
2024/04/05 01:52:52;;;;;;;11.50;6.70;;;;;;;;;;5009669;28;20034;-57
2024/04/05 01:55:18;;;;;;;11.00;6.45;;;;;;;;;;5009873;28;20026;-56
2024/04/05 01:57:44;;;;;;;11.27;6.60;;;;;;;;;;5010077;28;20037;-58
2024/04/05 02:00:11;;;;;;;10.77;6.30;;;;;;;;;;5009878;28;20030;-57
2024/04/05 02:02:37;;;;;;;10.35;6.10;;;;;;;;;;5010075;28;20041;-55
2024/04/05 02:05:03;;;;;;;10.27;6.07;;;;;;;;;;5009777;28;20022;-57
2024/04/05 02:07:29;;;;;;;10.80;6.38;;;;;;;;;;5008410;28;20070;-56
2024/04/05 02:09:55;;;;;;;10.40;6.18;;;;;;;;;;5009863;28;20100;-55
2024/04/05 02:12:22;;;;;;;10.32;6.07;;;;;;;;;;5009202;28;20030;-54
2024/04/05 02:14:48;;;;;;;10.77;6.30;;;;;;;;;;5009094;28;20064;-54
2024/04/05 02:17:14;;;;;;;23.63;11.85;;;;;;;;;;5008491;28;20057;-57
2024/04/05 02:19:40;;;;;;;11.20;6.78;;;;;;;;;;5009768;28;20091;-56
2024/04/05 02:22:06;;;;;;;11.25;6.60;;;;;;;;;;5009693;28;20030;-57
2024/04/05 02:24:33;;;;;;;10.77;6.35;;;;;;;;;;5009837;28;20472;-55
2024/04/05 02:26:59;;;;;;;10.70;6.30;;;;;;;;;;5008624;28;20026;-56
2024/04/05 02:29:25;;;;;;;10.90;6.40;;;;;;;;;;5008420;28;20030;-54
2024/04/05 02:31:51;;;;;;;10.75;6.35;;;;;;;;;;5009649;28;20026;-57
2024/04/05 02:34:17;;;;;;;11.40;6.80;;;;;;;;;;5009769;28;20029;-54
2024/04/05 02:36:43;;;;;;;11.00;6.45;;;;;;;;;;5009658;28;20113;-55
2024/04/05 02:39:10;;;;;;;11.40;6.63;;;;;;;;;;5020126;28;20068;-56
2024/04/05 02:41:36;;;;;;;11.55;6.80;;;;;;;;;;5020383;28;20026;-58
2024/04/05 02:44:02;;;;;;;11.45;6.70;;;;;;;;;;5015950;28;20531;-56
2024/04/05 02:46:28;;;;;;;11.57;6.80;;;;;;;;;;5010219;28;20066;-58
2024/04/05 02:48:55;;;;;;;11.35;6.65;;;;;;;;;;5009785;28;20086;-58
2024/04/05 02:51:21;;;;;;;10.82;6.32;;;;;;;;;;5009388;28;20029;-59
2024/04/05 02:53:47;;;;;;;11.20;6.60;;;;;;;;;;5009260;28;20037;-57
2024/04/05 02:56:14;;;;;;;11.27;6.60;;;;;;;;;;5008851;28;20026;-56
2024/04/05 02:58:40;;;;;;;11.60;6.80;;;;;;;;;;5009080;28;20030;-57
2024/04/05 03:01:06;;;;;;;10.82;6.35;;;;;;;;;;5009273;28;20101;-54
2024/04/05 03:03:32;;;;;;;11.25;6.60;;;;;;;;;;5009252;28;20559;-54
2024/04/05 03:05:58;;;;;;;11.05;6.50;;;;;;;;;;5009109;28;20431;-56
2024/04/05 03:08:24;;;;;;;11.00;6.45;;;;;;;;;;5007978;28;20030;-56
2024/04/05 03:10:50;;;;;;;10.80;6.40;;;;;;;;;;5009135;28;20022;-52
2024/04/05 03:13:16;;;;;;;10.90;6.43;;;;;;;;;;5009194;28;20057;-56
2024/04/05 03:15:42;;;;;;;11.40;6.70;;;;;;;;;;5008035;28;20228;-55
2024/04/05 03:18:08;;;;;;;11.10;6.50;;;;;;;;;;5009175;28;20049;-56
2024/04/05 03:20:34;;;;;;;10.80;6.35;;;;;;;;;;5008680;28;20026;-56
2024/04/05 03:23:00;;;;;;;10.60;6.22;;;;;;;;;;5008803;28;20034;-55
2024/04/05 03:25:26;;;;;;;11.55;6.75;;;;;;;;;;5011925;28;20014;-56
2024/04/05 03:27:52;;;;;;;11.43;6.70;;;;;;;;;;5012937;28;20026;-55
2024/04/05 03:30:18;;;;;;;10.95;6.40;;;;;;;;;;5012739;28;20025;-54
2024/04/05 03:32:44;;;;;;;11.30;6.63;;;;;;;;;;5011319;28;20030;-55
2024/04/05 03:35:10;;;;;;;11.45;6.68;;;;;;;;;;5012652;28;20073;-54
2024/04/05 03:37:36;;;;;;;11.25;6.60;;;;;;;;;;5013046;28;20029;-56
2024/04/05 03:40:03;;;;;;;11.77;6.90;;;;;;;;;;5012108;28;20125;-54
2024/04/05 03:42:29;;;;;;;11.90;7.00;;;;;;;;;;5011165;28;20030;-56
2024/04/05 03:44:55;;;;;;;11.68;6.80;;;;;;;;;;5012882;28;20096;-56
2024/04/05 03:47:21;;;;;;;11.80;6.90;;;;;;;;;;5011614;28;20481;-54
2024/04/05 03:49:47;;;;;;;11.40;6.65;;;;;;;;;;5011348;28;20153;-59
2024/04/05 03:52:13;;;;;;;11.35;6.63;;;;;;;;;;5011196;28;20448;-57
2024/04/05 03:54:39;;;;;;;11.15;6.55;;;;;;;;;;5012388;28;20080;-53
2024/04/05 03:57:05;;;;;;;11.27;6.63;;;;;;;;;;5012470;28;20432;-54
2024/04/05 03:59:31;;;;;;;11.60;6.78;;;;;;;;;;5012048;28;20083;-55
2024/04/05 04:01:57;;;;;;;11.90;6.97;;;;;;;;;;5011973;28;20030;-57
2024/04/05 04:04:23;;;;;;;12.02;7.30;;;;;;;;;;5012145;28;20099;-57
2024/04/05 04:06:49;;;;;;;11.65;6.80;;;;;;;;;;5012094;28;20472;-55
2024/04/05 04:09:17;;;;;;;12.40;7.25;;;;;;;;;;5012453;28;20396;-57
2024/04/05 04:11:43;;;;;;;12.05;7.07;;;;;;;;;;5012267;28;20025;-57
2024/04/05 04:14:09;;;;;;;12.88;7.60;;;;;;;;;;5011720;28;20125;-55
2024/04/05 04:16:35;;;;;;;12.70;7.45;;;;;;;;;;5011952;28;20041;-54
2024/04/05 04:19:01;;;;;;;12.30;7.20;;;;;;;;;;5011831;28;20085;-54
2024/04/05 04:21:27;;;;;;;12.35;7.22;;;;;;;;;;5010247;28;20404;-58
2024/04/05 04:23:54;;;;;;;12.50;7.30;;;;;;;;;;5010981;28;20109;-55
2024/04/05 04:26:20;;;;;;;13.55;8.30;;;;;;;;;;5011482;28;20018;-58
2024/04/05 04:28:47;;;;;;;12.68;7.40;;;;;;;;;;5011887;28;20416;-54
2024/04/05 04:31:21;;;;;;;12.55;7.35;;;;;;;;;;5011424;28;20022;-57
2024/04/05 04:33:47;;;;;;;12.18;7.20;;;;;;;;;;5011363;28;20037;-57
2024/04/05 04:36:13;;;;;;;13.00;7.70;;;;;;;;;;5011211;28;20162;-52
2024/04/05 04:38:39;;;;;;;12.75;7.47;;;;;;;;;;5011432;28;20026;-56
2024/04/05 04:41:05;;;;;;;13.00;7.60;;;;;;;;;;5011028;28;20045;-56
2024/04/05 04:43:32;;;;;;;13.32;7.90;;;;;;;;;;5011452;28;20034;-56
2024/04/05 04:45:58;;;;;;;12.98;7.60;;;;;;;;;;5009920;28;20557;-57
2024/04/05 04:48:28;;;;;;;12.80;7.40;;;;;;;;;;5011019;28;20314;-57
2024/04/05 04:50:54;;;;;;;12.73;7.43;;;;;;;;;;5010993;28;20030;-56
2024/04/05 04:53:20;;;;;;;13.10;7.70;;;;;;;;;;5011008;28;20595;-56
2024/04/05 04:55:46;;;;;;;12.60;7.40;;;;;;;;;;5011243;28;20034;-55
2024/04/05 04:58:16;;;;;;;13.20;7.70;;;;;;;;;;5010963;28;20022;-57
2024/04/05 05:00:43;;;;;;;13.00;7.60;;;;;;;;;;5011088;28;20160;-57
2024/04/05 05:03:10;;;;;;;12.88;7.50;;;;;;;;;;5010588;28;20100;-51
2024/04/05 05:05:36;;;;;;;13.00;7.60;;;;;;;;;;5010846;28;20018;-52
2024/04/05 05:08:02;;;;;;;12.43;7.25;;;;;;;;;;5010999;28;20037;-55
2024/04/05 05:10:27;;;;;;;12.55;7.30;;;;;;;;;;5009172;28;20420;-56
2024/04/05 05:12:53;;;;;;;12.30;7.20;;;;;;;;;;5010816;28;20068;-54
2024/04/05 05:15:19;;;;;;;12.40;7.20;;;;;;;;;;5010786;28;20365;-55
2024/04/05 05:17:45;;;;;;;11.65;6.82;;;;;;;;;;5010843;28;20037;-55
2024/04/05 05:20:14;;;;;;;12.18;7.10;;;;;;;;;;5013392;28;20029;-57
2024/04/05 05:22:40;;;;;;;;;;;;;;;;;;5019232;28;20026;-56
2024/04/05 05:25:06;;;;;;;12.07;7.10;;;;;;;;;;5018271;28;19969;-54
2024/04/05 05:27:32;;;;;;;12.10;7.10;;;;;;;;;;5012038;28;20057;-55
2024/04/05 05:29:58;;;;;;;11.55;6.85;;;;;;;;;;5010532;28;20524;-55
2024/04/05 05:32:24;;;;;;;12.00;7.03;;;;;;;;;;5010451;28;20140;-54
2024/04/05 05:34:51;;;;;;;12.32;7.20;;;;;;;;;;5009060;28;20036;-56
2024/04/05 05:37:17;;;;;;;12.40;7.30;;;;;;;;;;5010254;28;20377;-55
2024/04/05 05:39:43;;;;;;;12.75;7.45;;;;;;;;;;5010290;28;20176;-55
2024/04/05 05:42:09;;;;;;;13.38;8.07;;;;;;;;;;5010003;28;20061;-53
2024/04/05 05:44:35;;;;;;;13.38;7.95;;;;;;;;;;5010095;28;20066;-55
2024/04/05 05:47:01;;;;;;;13.57;8.75;;;;;;;;;;5009434;28;20378;-57
2024/04/05 05:49:30;;;;;;;13.73;9.18;;;;;;;;;;5009850;28;20041;-57
2024/04/05 05:51:56;;;;;;;14.18;10.30;;;;;;;;;;5009913;28;20089;-56
2024/04/05 05:54:22;;;;;;;14.80;12.15;;;;;;;;;;5009728;28;20101;-57
2024/04/05 05:56:53;;;;;;;15.10;13.05;;;;;;;;;;5008375;28;20108;-53
2024/04/05 05:59:19;;;;;;;15.30;13.55;;;;;;;;;;5010564;28;20040;-56
2024/04/05 06:01:45;;;;;;;15.68;13.98;;;;;;;;;;5010474;28;20022;-51
2024/04/05 06:04:11;;;;;;;15.10;12.98;;;;;;;;;;5010301;28;20026;-55
2024/04/05 06:06:37;;;;;;;15.00;12.90;;;;;;;;;;5011007;28;20017;-56
2024/04/05 06:09:03;;;;;;;15.00;12.80;;;;;;;;;;5009207;28;20030;-56
2024/04/05 06:11:31;;;;;;;15.38;13.68;;;;;;;;;;5009826;28;20053;-55
2024/04/05 06:13:57;;;;;;;18.27;16.48;;;;;;;;;;5009874;28;20025;-55
2024/04/05 06:16:23;;;;;;;17.85;16.15;;;;;;;;;;5009912;28;20033;-55
2024/04/05 06:18:49;;;;;;;18.45;16.65;;;;;;;;;;5011003;28;20025;-55
2024/04/05 06:21:15;;;;;;;18.10;16.40;;;;;;;;;;5010262;28;20614;-56
2024/04/05 06:23:41;;;;;;;17.65;15.95;;;;;;;;;;5009725;28;20058;-55
2024/04/05 06:26:06;;;;;;;18.08;16.38;;;;;;;;;;5008524;28;20028;-54
2024/04/05 06:28:34;;;;;;;18.25;16.50;;;;;;;;;;5009954;28;20030;-51
2024/04/05 06:31:01;;;;;;;17.90;16.20;;;;;;;;;;5009844;28;20025;-52
2024/04/05 06:33:27;;;;;;;17.17;15.48;;;;;;;;;;5009450;28;20105;-50
2024/04/05 06:36:00;;;;;;;16.75;15.05;;;;;;;;;;5009312;28;20030;-56
2024/04/05 06:38:26;;;;;;;16.92;15.23;;;;;;;;;;5009483;28;20030;-53
2024/04/05 06:40:58;;;;;;;17.35;15.65;;;;;;;;;;5007958;28;20034;-56
2024/04/05 06:43:25;;;;;;;19.33;17.52;;;;;;;;;;5007907;28;20092;-52
2024/04/05 06:45:54;;;;;;;19.23;17.42;;;;;;;;;;5009135;28;20511;-56
2024/04/05 06:48:20;;;;;;;19.15;17.35;;;;;;;;;;5009649;28;20101;-55
2024/04/05 06:50:47;;;;;;;19.23;17.42;;;;;;;;;;5009530;28;20033;-53
2024/04/05 06:53:13;;;;;;;24.17;22.17;;;;;;;;;;5008168;28;20048;-56
2024/04/05 06:55:45;;;;;;;24.05;22.05;;;;;;;;;;5010236;28;20046;-56
2024/04/05 06:58:12;;;;;;;22.83;20.92;;;;;;;;;;5010167;28;20646;-51
2024/04/05 07:00:39;;;;;;;23.70;21.70;;;;;;;;;;5011542;28;20093;-56
2024/04/05 07:03:05;;;;;;;21.65;19.75;;;;;;;;;;5012755;28;20484;-54
2024/04/05 07:05:31;;;;;;;21.58;19.67;;;;;;;;;;5013453;28;20026;-57
2024/04/05 07:07:57;;;;;;;21.35;19.45;;;;;;;;;;5013191;28;20473;-56
2024/04/05 07:10:23;;;;;;;21.52;19.63;;;;;;;;;;5011869;28;20071;-55
2024/04/05 07:12:52;;;;;;;21.27;19.38;;;;;;;;;;5013157;28;20025;-55
2024/04/05 07:15:21;;;;;;;20.88;19.00;;;;;;;;;;5012782;28;20098;-56
2024/04/05 07:17:54;;;;;;;22.63;20.63;;;;;;;;;;5013026;28;20056;-52
2024/04/05 07:20:21;;;;;;;22.05;20.15;;;;;;;;;;5013157;28;20030;-52
2024/04/05 07:22:47;;;;;;;21.63;19.73;;;;;;;;;;5011617;28;20022;-52
2024/04/05 07:25:13;;;;;;;21.25;19.35;;;;;;;;;;5013113;28;20034;-56
2024/04/05 07:27:39;;;;;;;20.85;19.00;;;;;;;;;;5011517;28;20377;-55
2024/04/05 07:30:06;;;;;;;20.55;18.75;;;;;;;;;;5013202;28;20120;-56
2024/04/05 07:32:32;;;;;;;20.70;18.90;;;;;;;;;;5012415;28;20049;-55
2024/04/05 07:34:58;;;;;;;24.02;22.00;;;;;;;;;;5012253;28;20030;-56
2024/04/05 07:37:24;;;;;;;20.13;18.33;;;;;;;;;;5012584;28;20041;-58
2024/04/05 07:39:50;;;;;;;19.55;17.75;;;;;;;;;;5011215;28;20499;-53
2024/04/05 07:42:19;;;;;;;19.50;17.70;;;;;;;;;;5012683;28;20460;-52
2024/04/05 07:44:45;;;;;;;;;;;;;;;;;;5013003;28;20014;-52
2024/04/05 07:47:11;;;;;;;18.10;16.40;;;;;;;;;;5012980;28;19945;-51
2024/04/05 07:49:37;;;;;;;17.67;15.98;;;;;;;;;;5012445;28;20041;-50
2024/04/05 07:52:03;;;;;;;17.02;15.32;;;;;;;;;;5012023;28;20025;-53
2024/04/05 07:54:29;;;;;;;17.45;15.75;;;;;;;;;;5011965;28;20033;-54
2024/04/05 07:56:56;;;;;;;17.70;16.00;;;;;;;;;;5012165;28;20084;-49
2024/04/05 07:59:21;;;;;;;16.75;15.05;;;;;;;;;;5012207;28;20022;-52
2024/04/05 08:01:48;;;;;;;16.75;15.05;;;;;;;;;;5012078;28;20030;-53
2024/04/05 08:04:15;;;;;;;16.20;14.50;;;;;;;;;;5012058;28;20384;-54
2024/04/05 08:06:40;;;;;;;16.45;14.75;;;;;;;;;;5012883;28;20029;-56
2024/04/05 08:09:07;;;;;;;16.17;14.48;;;;;;;;;;5011996;28;20027;-53
2024/04/05 08:11:33;;;;;;;16.13;14.43;;;;;;;;;;5011212;28;20101;-53
2024/04/05 08:13:59;;;;;;;15.60;13.90;;;;;;;;;;5012066;28;20030;-55
2024/04/05 08:16:26;;;;;;;15.10;13.25;;;;;;;;;;5011294;28;20101;-56
2024/04/05 08:18:53;;;;;;;15.00;12.95;;;;;;;;;;5011832;28;20022;-54
2024/04/05 08:21:20;;;;;;;14.88;12.43;;;;;;;;;;5011667;28;20026;-55
2024/04/05 08:23:46;;;;;;;14.80;12.00;;;;;;;;;;5011511;28;20018;-56
2024/04/05 08:26:12;;;;;;;14.38;10.90;;;;;;;;;;5011789;28;20034;-55
2024/04/05 08:28:39;;;;;;;14.30;10.80;;;;;;;;;;5011225;28;20026;-51
2024/04/05 08:31:05;;;;;;;14.00;9.95;;;;;;;;;;5011474;28;20520;-58
2024/04/05 08:33:31;;;;;;;13.80;9.32;;;;;;;;;;5011978;28;20065;-50
2024/04/05 08:35:57;;;;;;;13.65;8.80;;;;;;;;;;5011070;28;20026;-51
2024/04/05 08:38:23;;;;;;;13.63;8.85;;;;;;;;;;5010129;28;20033;-50
2024/04/05 08:40:50;;;;;;;13.57;8.57;;;;;;;;;;5009996;28;20051;-52
2024/04/05 08:43:17;;;;;;;13.48;8.48;;;;;;;;;;5011173;28;20037;-51
2024/04/05 08:45:44;;;;;;;13.48;8.27;;;;;;;;;;5011508;28;20469;-49
2024/04/05 08:48:11;;;;;;;13.55;8.30;;;;;;;;;;5011358;28;20037;-50
2024/04/05 08:50:37;;;;;;;13.30;7.90;;;;;;;;;;5010377;28;20447;-53
2024/04/05 08:53:08;;;;;;;18.27;7.93;;;;;;;;;;5010344;28;20550;-57
2024/04/05 08:55:35;;;;;;;14.10;9.55;;;;;;;;;;5010511;28;20048;-55
2024/04/05 08:58:02;;;;;;;13.43;8.10;;;;;;;;;;5010292;28;20075;-54
2024/04/05 09:00:28;;;;;;;13.35;7.85;;;;;;;;;;5010379;28;20036;-53
2024/04/05 09:02:56;;;;;;;13.18;7.70;;;;;;;;;;5009460;28;20022;-57
2024/04/05 09:05:23;;;;;;;12.73;7.40;;;;;;;;;;5009976;28;20476;-54
2024/04/05 09:08:02;;;;;;;12.55;7.35;;;;;;;;;;5011129;28;20022;-53
2024/04/05 09:10:28;;;;;;;12.52;7.32;;;;;;;;;;5010885;28;20083;-52
2024/04/05 09:12:59;;;;;;;13.10;7.72;;;;;;;;;;5010599;28;20026;-54
2024/04/05 09:15:26;;;;;;;12.95;7.53;;;;;;;;;;5010965;28;20022;-56
2024/04/05 09:17:53;;;;;;;13.05;7.57;;;;;;;;;;5011296;28;20074;-54
2024/04/05 09:20:31;;;;;;;13.10;7.60;;;;;;;;;;5009233;28;20025;-51
2024/04/05 09:23:01;;;;;;;12.93;7.57;;;;;;;;;;5007909;28;20028;-52
2024/04/05 09:25:31;;;;;;;12.43;7.25;;;;;;;;;;5010475;28;20090;-52
2024/04/05 09:28:07;;;;;;;11.90;7.10;;;;;;;;;;5010656;28;20049;-56
2024/04/05 09:30:33;;;;;;;12.18;7.10;;;;;;;;;;5010304;28;20067;-54
2024/04/05 09:32:59;;;;;;;17.27;9.38;;;;;;;;;;5009834;28;20073;-54
2024/04/05 09:35:26;;;;;;;12.90;7.50;;;;;;;;;;5010297;28;20026;-54
2024/04/05 09:37:58;;;;;;;13.20;7.80;;;;;;;;;;5010432;28;20408;-54
2024/04/05 09:40:24;;;;;;;13.20;7.78;;;;;;;;;;5009640;28;20040;-55
2024/04/05 09:42:53;;;;;;;13.25;7.95;;;;;;;;;;5009776;28;20125;-56
2024/04/05 09:45:21;;;;;;;12.60;7.40;;;;;;;;;;5012675;28;20365;-55
2024/04/05 09:47:48;;;;;;;12.85;7.53;;;;;;;;;;5010134;28;20627;-54
2024/04/05 09:50:14;;;;;;;12.98;7.55;;;;;;;;;;5008818;28;20068;-56
2024/04/05 09:52:43;;;;;;;12.40;7.20;;;;;;;;;;5008540;28;20041;-55
2024/04/05 09:55:12;;;;;;;12.55;7.50;;;;;;;;;;5008437;28;20026;-56
2024/04/05 09:57:38;;;;;;;11.98;6.97;;;;;;;;;;5009920;28;20376;-56
2024/04/05 10:00:14;;;;;;;13.60;8.68;;;;;;;;;;5009933;28;20057;-55
2024/04/05 10:02:48;;;;;;;13.00;7.60;;;;;;;;;;5009751;28;20065;-55
2024/04/05 10:05:27;;;;;;;12.32;7.22;;;;;;;;;;5009867;28;20018;-57
2024/04/05 10:07:54;;;;;;;13.05;7.80;;;;;;;;;;5009933;28;20106;-54
2024/04/05 10:10:32;;;;;;;13.32;7.88;;;;;;;;;;5010230;28;20537;-51
2024/04/05 10:13:09;;;;;;;12.55;7.30;;;;;;;;;;5008180;28;20064;-54
2024/04/05 10:15:35;;;;;;;13.20;7.80;;;;;;;;;;5010078;28;20037;-55
2024/04/05 10:18:01;;;;;;;13.57;8.65;;;;;;;;;;5009685;28;20048;-52
2024/04/05 10:20:29;;;;;;;13.15;7.82;;;;;;;;;;5009940;28;20376;-54
2024/04/05 10:22:59;;;;;;;14.43;11.05;;;;;;;;;;5008939;28;20144;-55
2024/04/05 10:25:25;;;;;;;12.93;7.53;;;;;;;;;;5008997;28;20064;-51
2024/04/05 10:27:55;;;;;;;13.30;8.00;;;;;;;;;;5009492;28;20049;-51
2024/04/05 10:30:21;;;;;;;13.00;7.65;;;;;;;;;;5009580;28;20044;-54
2024/04/05 10:32:55;;;;;;;14.02;8.80;;;;;;;;;;5007916;28;20404;-55
2024/04/05 10:35:21;;;;;;;13.10;7.72;;;;;;;;;;5009381;28;20081;-52
2024/04/05 10:37:56;;;;;;;13.40;8.00;;;;;;;;;;5009758;28;20053;-53
2024/04/05 10:40:22;;;;;;;13.38;8.15;;;;;;;;;;5008304;28;20025;-53
2024/04/05 10:42:48;;;;;;;13.57;8.60;;;;;;;;;;5006338;28;20061;-53
2024/04/05 10:45:22;;;;;;;13.93;9.50;;;;;;;;;;5008454;28;20022;-53
2024/04/05 10:47:52;;;;;;;14.02;9.90;;;;;;;;;;5009229;28;20022;-54
2024/04/05 10:50:19;;;;;;;13.95;9.82;;;;;;;;;;5009434;28;20022;-54
2024/04/05 10:53:00;;;;;;;16.35;14.65;;;;;;;;;;5008772;28;20030;-54
2024/04/05 10:55:26;;;;;;;18.27;16.48;;;;;;;;;;5009165;28;20034;-52
2024/04/05 10:57:52;;;;;;;20.52;18.63;;;;;;;;;;5009177;28;20030;-55
2024/04/05 11:00:19;;;;;;;29.75;27.55;;;;;;;;;;5009250;28;20575;-51
2024/04/05 11:02:45;;;;;;;30.65;28.35;;;;;;;;;;5008870;28;20037;-56
2024/04/05 11:05:13;;;;;;;30.17;27.88;;;;;;;;;;5007715;28;20044;-57
2024/04/05 11:07:39;;;;;;;30.20;27.90;;;;;;;;;;5009893;28;20057;-54
2024/04/05 11:10:18;;;;;;;29.95;27.65;;;;;;;;;;5009162;28;20030;-53
2024/04/05 11:12:45;;;;;;;27.88;25.67;;;;;;;;;;5009614;28;20026;-54
2024/04/05 11:15:11;;;;;;;25.58;23.48;;;;;;;;;;5009202;28;20041;-56
2024/04/05 11:17:38;;;;;;;24.05;22.05;;;;;;;;;;5009340;28;20519;-55
2024/04/05 11:20:07;;;;;;;25.58;23.48;;;;;;;;;;5009119;28;20046;-53
2024/04/05 11:22:33;;;;;;;23.63;21.63;;;;;;;;;;5008552;28;20495;-54
2024/04/05 11:24:59;;;;;;;22.92;20.92;;;;;;;;;;5011089;28;20149;-53
2024/04/05 11:27:27;;;;;;;23.30;21.30;;;;;;;;;;5009515;28;20058;-53
2024/04/05 11:29:53;;;;;;;23.25;21.25;;;;;;;;;;5009304;28;20048;-54
2024/04/05 11:32:28;;;;;;;23.35;21.35;;;;;;;;;;5009175;28;20026;-55
2024/04/05 11:34:55;;;;;;;22.77;20.77;;;;;;;;;;5009378;28;20053;-56
2024/04/05 11:37:21;;;;;;;22.70;20.70;;;;;;;;;;5008928;28;20457;-55
2024/04/05 11:39:47;;;;;;;21.88;19.88;;;;;;;;;;5008742;28;20064;-56
2024/04/05 11:42:13;;;;;;;22.30;20.33;;;;;;;;;;5008576;28;20108;-55
2024/04/05 11:44:40;;;;;;;21.30;19.40;;;;;;;;;;5008768;28;20065;-56
2024/04/05 11:47:06;;;;;;;20.73;18.83;;;;;;;;;;5012453;28;20018;-53
2024/04/05 11:49:32;;;;;;;20.40;18.50;;;;;;;;;;5010916;28;20168;-53
2024/04/05 11:51:59;;;;;;;20.05;18.15;;;;;;;;;;5012162;28;20030;-49
2024/04/05 11:54:25;;;;;;;19.30;17.50;;;;;;;;;;5012006;28;20021;-54
2024/04/05 11:56:51;;;;;;;16.90;15.20;;;;;;;;;;5008312;28;20029;-54
2024/04/05 11:59:17;;;;;;;14.88;12.10;;;;;;;;;;5011826;28;20108;-53
2024/04/05 12:01:43;;;;;;;14.65;10.95;;;;;;;;;;5012310;28;20037;-57
2024/04/05 12:04:10;;;;;;;14.10;10.05;;;;;;;;;;5011974;28;20664;-53
2024/04/05 12:06:36;;;;;;;13.90;9.55;;;;;;;;;;5011972;28;20088;-55
2024/04/05 12:09:05;;;;;;;13.68;9.15;;;;;;;;;;5013304;28;20030;-53
2024/04/05 12:11:31;;;;;;;15.23;11.05;;;;;;;;;;5012301;28;20062;-57
2024/04/05 12:13:57;;;;;;;15.98;9.10;;;;;;;;;;5012311;28;20014;-53
2024/04/05 12:16:23;;;;;;;13.57;8.65;;;;;;;;;;5012218;28;20026;-53
2024/04/05 12:18:49;;;;;;;13.80;9.30;;;;;;;;;;5013552;28;20413;-57
2024/04/05 12:21:15;;;;;;;13.63;8.90;;;;;;;;;;5012956;28;20400;-53
2024/04/05 12:23:41;;;;;;;13.57;8.60;;;;;;;;;;5009846;28;20094;-51
2024/04/05 12:26:09;;;;;;;13.90;9.40;;;;;;;;;;5012407;28;20025;-55
2024/04/05 12:28:35;;;;;;;13.73;9.10;;;;;;;;;;5011551;28;20038;-52
2024/04/05 12:31:02;;;;;;;13.73;9.00;;;;;;;;;;5011122;28;20459;-52
2024/04/05 12:33:28;;;;;;;13.85;9.10;;;;;;;;;;5011467;28;20045;-49
2024/04/05 12:35:57;;;;;;;13.70;9.10;;;;;;;;;;5012227;28;20148;-51
2024/04/05 12:38:27;;;;;;;13.57;8.60;;;;;;;;;;5011944;28;20133;-51
2024/04/05 12:40:54;;;;;;;13.63;8.75;;;;;;;;;;5008808;28;20029;-55
2024/04/05 12:43:20;;;;;;;13.63;8.90;;;;;;;;;;5011040;28;20092;-55
2024/04/05 12:45:49;;;;;;;13.57;8.63;;;;;;;;;;5010941;28;20050;-51
2024/04/05 12:48:15;;;;;;;13.50;8.30;;;;;;;;;;5011762;28;20022;-53
2024/04/05 12:50:41;;;;;;;13.60;8.57;;;;;;;;;;5011793;28;20095;-54
2024/04/05 12:53:07;;;;;;;13.50;8.25;;;;;;;;;;5011666;28;20054;-55
2024/04/05 12:55:33;;;;;;;13.57;8.68;;;;;;;;;;5010564;28;20025;-57
2024/04/05 12:57:59;;;;;;;13.57;8.55;;;;;;;;;;5010795;28;20080;-57
2024/04/05 13:00:26;;;;;;;13.60;8.77;;;;;;;;;;5009567;28;20082;-56
2024/04/05 13:02:53;;;;;;;14.43;8.75;;;;;;;;;;5010167;28;20041;-55
2024/04/05 13:05:18;;;;;;;13.63;8.70;;;;;;;;;;5010910;28;20057;-56
2024/04/05 13:07:44;;;;;;;13.50;8.30;;;;;;;;;;5008162;28;20408;-55
2024/04/05 13:10:10;;;;;;;13.90;8.60;;;;;;;;;;5005833;28;20026;-56
2024/04/05 13:12:37;;;;;;;13.35;8.05;;;;;;;;;;5011369;28;20508;-56
2024/04/05 13:15:04;;;;;;;13.38;7.93;;;;;;;;;;5007471;28;20034;-51
2024/04/05 13:17:30;;;;;;;14.80;9.05;;;;;;;;;;5009990;28;20026;-53
2024/04/05 13:19:56;;;;;;;13.70;8.85;;;;;;;;;;5010356;28;20032;-54
2024/04/05 13:22:24;;;;;;;13.55;8.55;;;;;;;;;;5011167;28;20022;-55
2024/04/05 13:24:50;;;;;;;13.50;8.40;;;;;;;;;;5011162;28;20030;-53
2024/04/05 13:27:16;;;;;;;13.50;8.30;;;;;;;;;;5010068;28;20080;-52
2024/04/05 13:29:42;;;;;;;13.43;8.18;;;;;;;;;;5009788;28;20117;-55
2024/04/05 13:32:08;;;;;;;13.82;8.50;;;;;;;;;;5010206;28;20065;-53
2024/04/05 13:34:34;;;;;;;13.48;8.30;;;;;;;;;;5008005;28;20034;-58
2024/04/05 13:37:00;;;;;;;13.45;8.20;;;;;;;;;;5006699;28;20084;-54
2024/04/05 13:39:26;;;;;;;13.80;8.65;;;;;;;;;;5006107;28;20022;-58
2024/04/05 13:41:51;;;;;;;13.68;8.60;;;;;;;;;;5006439;28;20026;-57
2024/04/05 13:44:18;;;;;;;13.48;8.35;;;;;;;;;;5006460;28;20021;-56
2024/04/05 13:46:44;;;;;;;13.50;8.45;;;;;;;;;;5006879;28;20030;-58
2024/04/05 13:49:10;;;;;;;13.60;8.82;;;;;;;;;;5006658;28;20104;-54
2024/04/05 13:51:36;;;;;;;13.48;8.48;;;;;;;;;;5008346;28;20091;-54
2024/04/05 13:54:05;;;;;;;13.45;8.10;;;;;;;;;;5008192;28;20427;-56
2024/04/05 13:56:31;;;;;;;13.60;8.57;;;;;;;;;;5010060;28;20034;-56
2024/04/05 13:58:57;;;;;;;15.98;9.10;;;;;;;;;;5009854;28;20148;-50
2024/04/05 14:01:23;;;;;;;14.30;9.48;;;;;;;;;;5009810;28;20026;-55
2024/04/05 14:03:52;;;;;;;13.63;8.80;;;;;;;;;;5010052;28;20105;-56
2024/04/05 14:06:18;;;;;;;14.30;10.52;;;;;;;;;;5009604;28;20022;-56
2024/04/05 14:08:44;;;;;;;36.55;33.55;;;;;;;;;;5009116;28;20375;-55
2024/04/05 14:11:16;;;;;;;43.15;39.95;;;;;;;;;;5009709;28;20026;-54
2024/04/05 14:13:42;;;;;;;36.83;34.13;;;;;;;;;;5009506;28;20104;-56
2024/04/05 14:16:09;;;;;;;36.10;33.40;;;;;;;;;;5009344;28;20058;-49
2024/04/05 14:18:35;;;;;;;36.78;34.08;;;;;;;;;;5009561;28;20065;-53
2024/04/05 14:21:01;;;;;;;33.40;30.90;;;;;;;;;;5009484;28;20029;-52
2024/04/05 14:23:27;;;;;;;30.60;28.30;;;;;;;;;;5009231;28;20028;-52